sensor_id;sensor_type;location;lat;lon;timestamp;pressure;altitude;pressure_sealevel;temperature;humidity
69221;BME280;56331;51.992;20.910;2023-05-20T00:01:23;101287.19;;;22.72;44.94
69221;BME280;56331;51.992;20.910;2023-05-20T00:03:50;101284.98;;;22.72;44.94
69221;BME280;56331;51.992;20.910;2023-05-20T00:06:16;101281.89;;;22.74;44.98
69221;BME280;56331;51.992;20.910;2023-05-20T00:08:43;101281.89;;;22.74;44.93
69221;BME280;56331;51.992;20.910;2023-05-20T00:11:10;101274.11;;;22.73;44.93
69221;BME280;56331;51.992;20.910;2023-05-20T00:13:37;101278.04;;;22.72;44.98
69221;BME280;56331;51.992;20.910;2023-05-20T00:16:05;101279.66;;;22.73;45.08
69221;BME280;56331;51.992;20.910;2023-05-20T00:18:31;101274.11;;;22.73;45.00
69221;BME280;56331;51.992;20.910;2023-05-20T00:20:58;101269.39;;;22.74;44.90
69221;BME280;56331;51.992;20.910;2023-05-20T00:23:24;101270.20;;;22.74;44.93
69221;BME280;56331;51.992;20.910;2023-05-20T00:25:51;101268.55;;;22.73;44.91
69221;BME280;56331;51.992;20.910;2023-05-20T00:28:17;101260.56;;;22.71;44.95
69221;BME280;56331;51.992;20.910;2023-05-20T00:30:44;101266.12;;;22.71;44.95
69221;BME280;56331;51.992;20.910;2023-05-20T00:33:11;101265.30;;;22.71;44.93
69221;BME280;56331;51.992;20.910;2023-05-20T00:35:37;101264.16;;;22.72;44.95
69221;BME280;56331;51.992;20.910;2023-05-20T00:38:04;101265.54;;;22.72;44.93
69221;BME280;56331;51.992;20.910;2023-05-20T00:40:31;101264.16;;;22.72;44.96
69221;BME280;56331;51.992;20.910;2023-05-20T00:42:57;101260.56;;;22.71;44.92
69221;BME280;56331;51.992;20.910;2023-05-20T00:45:24;101263.34;;;22.71;44.93
69221;BME280;56331;51.992;20.910;2023-05-20T00:47:53;101262.19;;;22.72;44.97
69221;BME280;56331;51.992;20.910;2023-05-20T00:50:22;101265.54;;;22.72;45.05
69221;BME280;56331;51.992;20.910;2023-05-20T00:52:48;101266.93;;;22.72;44.93
69221;BME280;56331;51.992;20.910;2023-05-20T00:55:17;101270.28;;;22.71;44.91
69221;BME280;56331;51.992;20.910;2023-05-20T00:57:43;101265.85;;;22.70;44.94
69221;BME280;56331;51.992;20.910;2023-05-20T01:00:10;101259.75;;;22.71;45.01
69221;BME280;56331;51.992;20.910;2023-05-20T01:02:38;101258.91;;;22.70;45.01
69221;BME280;56331;51.992;20.910;2023-05-20T01:05:06;101260.87;;;22.70;45.03
69221;BME280;56331;51.992;20.910;2023-05-20T01:07:32;101262.84;;;22.69;44.96
69221;BME280;56331;51.992;20.910;2023-05-20T01:09:59;101258.44;;;22.68;44.98
69221;BME280;56331;51.992;20.910;2023-05-20T01:12:30;101261.22;;;22.68;44.97
69221;BME280;56331;51.992;20.910;2023-05-20T01:15:07;101261.22;;;22.68;45.02
69221;BME280;56331;51.992;20.910;2023-05-20T01:17:43;101259.83;;;22.68;45.03
69221;BME280;56331;51.992;20.910;2023-05-20T01:20:13;101255.66;;;22.68;45.04
69221;BME280;56331;51.992;20.910;2023-05-20T01:22:46;101258.98;;;22.68;44.97
69221;BME280;56331;51.992;20.910;2023-05-20T01:25:13;101261.22;;;22.68;44.96
69221;BME280;56331;51.992;20.910;2023-05-20T01:27:39;101260.37;;;22.68;44.96
69221;BME280;56331;51.992;20.910;2023-05-20T01:30:07;101259.83;;;22.68;45.01
69221;BME280;56331;51.992;20.910;2023-05-20T01:32:38;101261.77;;;22.68;44.95
69221;BME280;56331;51.992;20.910;2023-05-20T01:35:06;101264.54;;;22.68;45.03
69221;BME280;56331;51.992;20.910;2023-05-20T01:37:35;101263.73;;;22.67;45.00
69221;BME280;56331;51.992;20.910;2023-05-20T01:40:03;101259.56;;;22.67;44.97
69221;BME280;56331;51.992;20.910;2023-05-20T01:42:34;101267.31;;;22.68;45.03
69221;BME280;56331;51.992;20.910;2023-05-20T01:45:02;101263.73;;;22.67;44.98
69221;BME280;56331;51.992;20.910;2023-05-20T01:47:28;101266.50;;;22.67;45.04
69221;BME280;56331;51.992;20.910;2023-05-20T01:49:55;101267.89;;;22.67;45.00
69221;BME280;56331;51.992;20.910;2023-05-20T01:52:22;101267.08;;;22.67;45.03
69221;BME280;56331;51.992;20.910;2023-05-20T01:54:48;101263.49;;;22.66;45.03
69221;BME280;56331;51.992;20.910;2023-05-20T01:57:20;101262.69;;;22.66;45.03
69221;BME280;56331;51.992;20.910;2023-05-20T01:59:47;101259.91;;;22.66;45.04
69221;BME280;56331;51.992;20.910;2023-05-20T02:02:13;101254.89;;;22.65;45.02
69221;BME280;56331;51.992;20.910;2023-05-20T02:04:49;101255.73;;;22.66;45.04
69221;BME280;56331;51.992;20.910;2023-05-20T02:07:15;101251.88;;;22.64;45.02
69221;BME280;56331;51.992;20.910;2023-05-20T02:09:46;101247.95;;;22.65;45.00
69221;BME280;56331;51.992;20.910;2023-05-20T02:12:12;101245.17;;;22.65;44.98
69221;BME280;56331;51.992;20.910;2023-05-20T02:14:44;101240.46;;;22.66;44.98
69221;BME280;56331;51.992;20.910;2023-05-20T02:17:18;101245.44;;;22.66;44.95
69221;BME280;56331;51.992;20.910;2023-05-20T02:19:44;101243.23;;;22.66;44.99
69221;BME280;56331;51.992;20.910;2023-05-20T02:22:12;101243.55;;;22.64;44.98
69221;BME280;56331;51.992;20.910;2023-05-20T02:24:39;101246.56;;;22.65;44.96
69221;BME280;56331;51.992;20.910;2023-05-20T02:27:08;101243.23;;;22.66;44.96
69221;BME280;56331;51.992;20.910;2023-05-20T02:29:34;101245.17;;;22.65;44.93
69221;BME280;56331;51.992;20.910;2023-05-20T02:32:00;101243.23;;;22.66;44.99
69221;BME280;56331;51.992;20.910;2023-05-20T02:34:27;101251.80;;;22.67;44.90
69221;BME280;56331;51.992;20.910;2023-05-20T02:36:55;101248.22;;;22.66;45.02
69221;BME280;56331;51.992;20.910;2023-05-20T02:39:21;101251.00;;;22.66;45.03
69221;BME280;56331;51.992;20.910;2023-05-20T02:41:48;101250.73;;;22.65;44.97
69221;BME280;56331;51.992;20.910;2023-05-20T02:44:14;101246.02;;;22.66;44.86
69221;BME280;56331;51.992;20.910;2023-05-20T02:46:41;101248.22;;;22.66;44.94
69221;BME280;56331;51.992;20.910;2023-05-20T02:49:09;101244.36;;;22.65;44.99
69221;BME280;56331;51.992;20.910;2023-05-20T02:51:36;101248.22;;;22.66;44.97
69221;BME280;56331;51.992;20.910;2023-05-20T02:54:02;101253.20;;;22.67;44.87
69221;BME280;56331;51.992;20.910;2023-05-20T02:56:29;101247.64;;;22.67;44.96
69221;BME280;56331;51.992;20.910;2023-05-20T02:58:55;101249.34;;;22.65;44.92
69221;BME280;56331;51.992;20.910;2023-05-20T03:01:21;101248.80;;;22.66;44.93
69221;BME280;56331;51.992;20.910;2023-05-20T03:03:48;101251.58;;;22.66;44.92
69221;BME280;56331;51.992;20.910;2023-05-20T03:06:15;101249.61;;;22.66;44.83
69221;BME280;56331;51.992;20.910;2023-05-20T03:08:41;101258.52;;;22.66;44.84
69221;BME280;56331;51.992;20.910;2023-05-20T03:11:07;101252.12;;;22.65;44.91
69221;BME280;56331;51.992;20.910;2023-05-20T03:13:34;101252.12;;;22.65;44.91
69221;BME280;56331;51.992;20.910;2023-05-20T03:16:00;101251.88;;;22.64;44.91
69221;BME280;56331;51.992;20.910;2023-05-20T03:18:27;101257.67;;;22.65;44.99
69221;BME280;56331;51.992;20.910;2023-05-20T03:20:53;101256.05;;;22.64;44.96
69221;BME280;56331;51.992;20.910;2023-05-20T03:23:20;101254.66;;;22.64;45.00
69221;BME280;56331;51.992;20.910;2023-05-20T03:25:47;101251.88;;;22.64;44.97
69221;BME280;56331;51.992;20.910;2023-05-20T03:28:13;101251.88;;;22.64;44.96
69221;BME280;56331;51.992;20.910;2023-05-20T03:30:39;101255.47;;;22.65;44.98
69221;BME280;56331;51.992;20.910;2023-05-20T03:33:06;101258.02;;;22.64;44.94
69221;BME280;56331;51.992;20.910;2023-05-20T03:35:32;101259.41;;;22.64;44.92
69221;BME280;56331;51.992;20.910;2023-05-20T03:37:59;101261.37;;;22.63;44.85
69221;BME280;56331;51.992;20.910;2023-05-20T03:40:27;101258.59;;;22.63;44.90
69221;BME280;56331;51.992;20.910;2023-05-20T03:42:53;101267.97;;;22.65;44.93
69221;BME280;56331;51.992;20.910;2023-05-20T03:45:19;101264.37;;;22.64;44.91
69221;BME280;56331;51.992;20.910;2023-05-20T03:47:47;101263.30;;;22.63;44.90
69221;BME280;56331;51.992;20.910;2023-05-20T03:50:18;101261.10;;;22.62;44.97
69221;BME280;56331;51.992;20.910;2023-05-20T03:52:45;101259.72;;;22.62;44.92
69221;BME280;56331;51.992;20.910;2023-05-20T03:55:11;101259.98;;;22.63;44.93
69221;BME280;56331;51.992;20.910;2023-05-20T03:57:39;101258.33;;;22.62;44.91
69221;BME280;56331;51.992;20.910;2023-05-20T04:00:07;101259.72;;;22.62;44.93
69221;BME280;56331;51.992;20.910;2023-05-20T04:02:39;101261.37;;;22.63;44.97
69221;BME280;56331;51.992;20.910;2023-05-20T04:05:06;101258.33;;;22.62;44.93
69221;BME280;56331;51.992;20.910;2023-05-20T04:07:35;101259.14;;;22.63;44.94
69221;BME280;56331;51.992;20.910;2023-05-20T04:10:03;101263.30;;;22.63;44.88
69221;BME280;56331;51.992;20.910;2023-05-20T04:12:29;101261.60;;;22.64;44.82
69221;BME280;56331;51.992;20.910;2023-05-20T04:14:59;101254.16;;;22.62;44.84
69221;BME280;56331;51.992;20.910;2023-05-20T04:17:29;101260.53;;;22.63;44.79
69221;BME280;56331;51.992;20.910;2023-05-20T04:19:56;101265.27;;;22.62;44.77
69221;BME280;56331;51.992;20.910;2023-05-20T04:22:25;101258.91;;;22.62;44.80
69221;BME280;56331;51.992;20.910;2023-05-20T04:24:51;101271.09;;;22.63;44.81
69221;BME280;56331;51.992;20.910;2023-05-20T04:27:18;101266.08;;;22.63;44.90
69221;BME280;56331;51.992;20.910;2023-05-20T04:29:45;101268.86;;;22.63;44.91
69221;BME280;56331;51.992;20.910;2023-05-20T04:32:14;101268.05;;;22.62;44.90
69221;BME280;56331;51.992;20.910;2023-05-20T04:34:41;101265.27;;;22.62;44.91
69221;BME280;56331;51.992;20.910;2023-05-20T04:37:07;101265.84;;;22.62;44.96
69221;BME280;56331;51.992;20.910;2023-05-20T04:39:35;101260.06;;;22.61;44.99
69221;BME280;56331;51.992;20.910;2023-05-20T04:42:02;101267.81;;;22.61;44.98
69221;BME280;56331;51.992;20.910;2023-05-20T04:44:30;101262.49;;;22.62;45.00
69221;BME280;56331;51.992;20.910;2023-05-20T04:46:57;101254.58;;;22.58;45.00
69221;BME280;56331;51.992;20.910;2023-05-20T04:49:24;101262.26;;;22.61;45.04
69221;BME280;56331;51.992;20.910;2023-05-20T04:51:52;101263.07;;;22.62;45.03
69221;BME280;56331;51.992;20.910;2023-05-20T04:54:20;101261.68;;;22.62;45.04
69221;BME280;56331;51.992;20.910;2023-05-20T04:56:47;101256.47;;;22.60;45.05
69221;BME280;56331;51.992;20.910;2023-05-20T04:59:13;101257.28;;;22.61;45.11
69221;BME280;56331;51.992;20.910;2023-05-20T05:01:40;101255.62;;;22.60;45.09
69221;BME280;56331;51.992;20.910;2023-05-20T05:04:06;101257.02;;;22.60;45.13
69221;BME280;56331;51.992;20.910;2023-05-20T05:06:32;101257.86;;;22.60;45.24
69221;BME280;56331;51.992;20.910;2023-05-20T05:09:00;101258.17;;;22.59;45.13
69221;BME280;56331;51.992;20.910;2023-05-20T05:11:26;101257.09;;;22.57;45.03
69221;BME280;56331;51.992;20.910;2023-05-20T05:13:53;101259.33;;;22.58;45.06
69221;BME280;56331;51.992;20.910;2023-05-20T05:16:20;101255.70;;;22.57;45.04
69221;BME280;56331;51.992;20.910;2023-05-20T05:18:46;101251.53;;;22.57;45.07
69221;BME280;56331;51.992;20.910;2023-05-20T05:21:12;101255.16;;;22.58;45.09
69221;BME280;56331;51.992;20.910;2023-05-20T05:23:39;101255.97;;;22.58;45.07
69221;BME280;56331;51.992;20.910;2023-05-20T05:26:07;101253.19;;;22.58;45.10
69221;BME280;56331;51.992;20.910;2023-05-20T05:28:33;101263.72;;;22.59;45.18
69221;BME280;56331;51.992;20.910;2023-05-20T05:31:00;101258.48;;;22.57;45.20
69221;BME280;56331;51.992;20.910;2023-05-20T05:33:27;101251.53;;;22.57;45.17
69221;BME280;56331;51.992;20.910;2023-05-20T05:35:53;101255.70;;;22.57;45.25
69221;BME280;56331;51.992;20.910;2023-05-20T05:38:22;101261.52;;;22.58;45.28
69221;BME280;56331;51.992;20.910;2023-05-20T05:40:48;101260.95;;;22.59;45.36
69221;BME280;56331;51.992;20.910;2023-05-20T05:43:14;101264.53;;;22.59;45.35
69221;BME280;56331;51.992;20.910;2023-05-20T05:45:41;101266.73;;;22.60;45.38
69221;BME280;56331;51.992;20.910;2023-05-20T05:48:08;101262.57;;;22.60;45.39
69221;BME280;56331;51.992;20.910;2023-05-20T05:50:34;101264.80;;;22.60;45.44
69221;BME280;56331;51.992;20.910;2023-05-20T05:53:01;101266.19;;;22.60;45.41
69221;BME280;56331;51.992;20.910;2023-05-20T05:55:27;101263.72;;;22.59;45.41
69221;BME280;56331;51.992;20.910;2023-05-20T05:57:54;101267.58;;;22.60;45.45
69221;BME280;56331;51.992;20.910;2023-05-20T06:00:21;101269.86;;;22.58;45.54
69221;BME280;56331;51.992;20.910;2023-05-20T06:02:47;101267.66;;;22.58;45.61
69221;BME280;56331;51.992;20.910;2023-05-20T06:05:13;101269.86;;;22.58;45.72
69221;BME280;56331;51.992;20.910;2023-05-20T06:07:42;101267.08;;;22.58;45.76
69221;BME280;56331;51.992;20.910;2023-05-20T06:10:09;101271.24;;;22.58;45.77
69221;BME280;56331;51.992;20.910;2023-05-20T06:12:35;101270.44;;;22.58;45.84
69221;BME280;56331;51.992;20.910;2023-05-20T06:15:02;101275.64;;;22.59;45.82
69221;BME280;56331;51.992;20.910;2023-05-20T06:17:28;101272.87;;;22.59;45.98
69221;BME280;56331;51.992;20.910;2023-05-20T06:19:55;101268.77;;;22.57;46.04
69221;BME280;56331;51.992;20.910;2023-05-20T06:22:21;101269.86;;;22.58;46.12
69221;BME280;56331;51.992;20.910;2023-05-20T06:24:48;101269.86;;;22.58;46.32
69221;BME280;56331;51.992;20.910;2023-05-20T06:27:14;101273.45;;;22.59;46.32
69221;BME280;56331;51.992;20.910;2023-05-20T06:29:41;101277.61;;;22.59;46.35
69221;BME280;56331;51.992;20.910;2023-05-20T06:32:07;101274.02;;;22.58;46.34
69221;BME280;56331;51.992;20.910;2023-05-20T06:34:34;101275.41;;;22.58;46.29
69221;BME280;56331;51.992;20.910;2023-05-20T06:37:00;101276.80;;;22.58;46.28
69221;BME280;56331;51.992;20.910;2023-05-20T06:39:27;101276.45;;;22.60;46.25
69221;BME280;56331;51.992;20.910;2023-05-20T06:41:53;101271.74;;;22.60;46.29
69221;BME280;56331;51.992;20.910;2023-05-20T06:44:20;101273.13;;;22.60;46.31
69221;BME280;56331;51.992;20.910;2023-05-20T06:46:47;101273.13;;;22.60;46.26
69221;BME280;56331;51.992;20.910;2023-05-20T06:49:14;101263.41;;;22.60;46.29
69221;BME280;56331;51.992;20.910;2023-05-20T06:51:41;101264.80;;;22.60;46.34
69221;BME280;56331;51.992;20.910;2023-05-20T06:54:09;101264.80;;;22.60;46.39
69221;BME280;56331;51.992;20.910;2023-05-20T06:56:35;101266.19;;;22.60;46.37
69221;BME280;56331;51.992;20.910;2023-05-20T06:59:02;101268.13;;;22.60;46.38
69221;BME280;56331;51.992;20.910;2023-05-20T07:01:28;101263.95;;;22.60;46.43
69221;BME280;56331;51.992;20.910;2023-05-20T07:03:54;101265.11;;;22.59;46.52
69221;BME280;56331;51.992;20.910;2023-05-20T07:06:22;101262.91;;;22.58;46.56
69221;BME280;56331;51.992;20.910;2023-05-20T07:08:48;101265.92;;;22.59;46.56
69221;BME280;56331;51.992;20.910;2023-05-20T07:11:15;101263.15;;;22.59;46.65
69221;BME280;56331;51.992;20.910;2023-05-20T07:13:41;101263.15;;;22.59;46.73
69221;BME280;56331;51.992;20.910;2023-05-20T07:16:07;101256.78;;;22.59;46.79
69221;BME280;56331;51.992;20.910;2023-05-20T07:18:34;101264.80;;;22.60;46.87
69221;BME280;56331;51.992;20.910;2023-05-20T07:21:01;101254.81;;;22.59;46.89
69221;BME280;56331;51.992;20.910;2023-05-20T07:23:27;101253.69;;;22.60;46.94
69221;BME280;56331;51.992;20.910;2023-05-20T07:25:54;101251.38;;;22.62;46.98
69221;BME280;56331;51.992;20.910;2023-05-20T07:28:20;101252.30;;;22.60;47.04
69221;BME280;56331;51.992;20.910;2023-05-20T07:30:47;101254.23;;;22.60;47.10
69221;BME280;56331;51.992;20.910;2023-05-20T07:33:15;101246.48;;;22.59;47.15
69221;BME280;56331;51.992;20.910;2023-05-20T07:35:44;101245.67;;;22.59;47.40
69221;BME280;56331;51.992;20.910;2023-05-20T07:38:13;101245.67;;;22.59;47.61
69221;BME280;56331;51.992;20.910;2023-05-20T07:40:40;101240.12;;;22.59;47.72
69221;BME280;56331;51.992;20.910;2023-05-20T07:43:07;101245.17;;;22.57;47.85
69221;BME280;56331;51.992;20.910;2023-05-20T07:45:35;101239.55;;;22.59;47.90
69221;BME280;56331;51.992;20.910;2023-05-20T07:48:02;101244.52;;;22.60;48.06
69221;BME280;56331;51.992;20.910;2023-05-20T07:50:29;101243.05;;;22.62;48.15
69221;BME280;56331;51.992;20.910;2023-05-20T07:52:55;101242.32;;;22.59;48.68
69221;BME280;56331;51.992;20.910;2023-05-20T07:55:22;101238.00;;;22.56;49.12
69221;BME280;56331;51.992;20.910;2023-05-20T07:57:48;101238.00;;;22.56;49.46
69221;BME280;56331;51.992;20.910;2023-05-20T08:00:15;101233.33;;;22.54;49.77
69221;BME280;56331;51.992;20.910;2023-05-20T08:02:41;101231.86;;;22.47;50.09
69221;BME280;56331;51.992;20.910;2023-05-20T08:05:08;101231.44;;;22.43;50.14
69221;BME280;56331;51.992;20.910;2023-05-20T08:07:34;101241.97;;;22.43;50.32
69221;BME280;56331;51.992;20.910;2023-05-20T08:10:01;101233.06;;;22.44;50.37
69221;BME280;56331;51.992;20.910;2023-05-20T08:12:27;101233.87;;;22.44;50.41
69221;BME280;56331;51.992;20.910;2023-05-20T08:14:53;101228.39;;;22.42;50.39
69221;BME280;56331;51.992;20.910;2023-05-20T08:17:20;101223.25;;;22.29;50.71
69221;BME280;56331;51.992;20.910;2023-05-20T08:19:46;101222.82;;;22.24;50.84
69221;BME280;56331;51.992;20.910;2023-05-20T08:22:12;101223.70;;;22.22;51.15
69221;BME280;56331;51.992;20.910;2023-05-20T08:24:39;101225.17;;;22.20;51.48
69221;BME280;56331;51.992;20.910;2023-05-20T08:27:06;101227.37;;;22.20;51.60
69221;BME280;56331;51.992;20.910;2023-05-20T08:29:32;101227.95;;;22.20;51.56
69221;BME280;56331;51.992;20.910;2023-05-20T08:31:59;101219.90;;;22.18;51.64
69221;BME280;56331;51.992;20.910;2023-05-20T08:34:25;101222.67;;;22.18;51.81
69221;BME280;56331;51.992;20.910;2023-05-20T08:36:52;101218.58;;;22.16;51.71
69221;BME280;56331;51.992;20.910;2023-05-20T08:39:18;101218.58;;;22.16;51.70
69221;BME280;56331;51.992;20.910;2023-05-20T08:41:46;101225.21;;;22.17;51.71
69221;BME280;56331;51.992;20.910;2023-05-20T08:44:14;101226.59;;;22.17;51.64
69221;BME280;56331;51.992;20.910;2023-05-20T08:46:42;101226.02;;;22.18;51.58
69221;BME280;56331;51.992;20.910;2023-05-20T08:49:09;101232.11;;;22.20;51.56
69221;BME280;56331;51.992;20.910;2023-05-20T08:51:36;101223.13;;;22.23;51.39
69221;BME280;56331;51.992;20.910;2023-05-20T08:54:03;101224.78;;;22.24;51.44
69221;BME280;56331;51.992;20.910;2023-05-20T08:56:30;101215.95;;;22.22;51.75
69221;BME280;56331;51.992;20.910;2023-05-20T08:59:00;101217.92;;;22.21;52.14
69221;BME280;56331;51.992;20.910;2023-05-20T09:01:28;101217.92;;;22.21;52.41
69221;BME280;56331;51.992;20.910;2023-05-20T09:03:58;101217.42;;;22.19;52.42
69221;BME280;56331;51.992;20.910;2023-05-20T09:06:25;101211.33;;;22.17;52.74
69221;BME280;56331;51.992;20.910;2023-05-20T09:08:51;101221.05;;;22.17;52.79
69221;BME280;56331;51.992;20.910;2023-05-20T09:11:19;101215.50;;;22.17;52.60
69221;BME280;56331;51.992;20.910;2023-05-20T09:13:48;101210.48;;;22.19;52.48
69221;BME280;56331;51.992;20.910;2023-05-20T09:16:15;101212.95;;;22.18;52.54
69221;BME280;56331;51.992;20.910;2023-05-20T09:18:42;101217.70;;;22.18;52.53
69221;BME280;56331;51.992;20.910;2023-05-20T09:21:09;101215.27;;;22.16;52.59
69221;BME280;56331;51.992;20.910;2023-05-20T09:23:38;101207.41;;;22.18;52.53
69221;BME280;56331;51.992;20.910;2023-05-20T09:26:04;101209.67;;;22.19;52.56
69221;BME280;56331;51.992;20.910;2023-05-20T09:28:31;101209.67;;;22.19;52.53
69221;BME280;56331;51.992;20.910;2023-05-20T09:30:59;101203.54;;;22.19;52.50
69221;BME280;56331;51.992;20.910;2023-05-20T09:33:28;101203.13;;;22.23;52.30
69221;BME280;56331;51.992;20.910;2023-05-20T09:36:08;101201.66;;;22.26;52.26
69221;BME280;56331;51.992;20.910;2023-05-20T09:38:37;101199.00;;;22.32;52.09
69221;BME280;56331;51.992;20.910;2023-05-20T09:41:12;101201.62;;;22.37;51.91
69221;BME280;56331;51.992;20.910;2023-05-20T09:43:40;101201.20;;;22.41;51.75
69221;BME280;56331;51.992;20.910;2023-05-20T09:46:07;101206.76;;;22.41;51.81
69221;BME280;56331;51.992;20.910;2023-05-20T09:48:35;101199.43;;;22.45;51.71
69221;BME280;56331;51.992;20.910;2023-05-20T09:51:05;101205.72;;;22.48;51.54
69221;BME280;56331;51.992;20.910;2023-05-20T09:53:32;101208.66;;;22.52;51.79
69221;BME280;56331;51.992;20.910;2023-05-20T09:55:58;101197.05;;;22.41;52.78
69221;BME280;56331;51.992;20.910;2023-05-20T09:58:26;101196.55;;;22.39;52.63
69221;BME280;56331;51.992;20.910;2023-05-20T10:00:55;101196.47;;;22.42;52.44
69221;BME280;56331;51.992;20.910;2023-05-20T10:03:23;101197.23;;;22.45;52.06
69221;BME280;56331;51.992;20.910;2023-05-20T10:11:32;101184.89;;;22.40;51.84
69221;BME280;56331;51.992;20.910;2023-05-20T10:17:04;101182.85;;;22.43;51.69
69221;BME280;56331;51.992;20.910;2023-05-20T10:19:32;101179.34;;;22.40;51.67
69221;BME280;56331;51.992;20.910;2023-05-20T10:22:10;101178.77;;;22.40;51.66
69221;BME280;56331;51.992;20.910;2023-05-20T10:24:36;101182.12;;;22.40;51.69
69221;BME280;56331;51.992;20.910;2023-05-20T10:27:06;101177.11;;;22.39;51.64
69221;BME280;56331;51.992;20.910;2023-05-20T10:29:43;101173.36;;;22.35;51.74
69221;BME280;56331;51.992;20.910;2023-05-20T10:32:10;101167.31;;;22.33;51.82
69221;BME280;56331;51.992;20.910;2023-05-20T10:34:49;101175.25;;;22.37;51.70
69221;BME280;56331;51.992;20.910;2023-05-20T10:37:26;101163.16;;;22.42;51.45
69221;BME280;56331;51.992;20.910;2023-05-20T10:39:51;101159.56;;;22.41;51.42
69221;BME280;56331;51.992;20.910;2023-05-20T10:42:28;101156.13;;;22.44;51.33
69221;BME280;56331;51.992;20.910;2023-05-20T10:44:55;101152.23;;;22.45;51.27
69221;BME280;56331;51.992;20.910;2023-05-20T10:47:21;101146.33;;;22.47;51.26
69221;BME280;56331;51.992;20.910;2023-05-20T10:49:48;101143.33;;;22.46;51.30
69221;BME280;56331;51.992;20.910;2023-05-20T10:52:15;101148.87;;;22.46;51.27
69221;BME280;56331;51.992;20.910;2023-05-20T10:54:47;101145.69;;;22.41;51.47
69221;BME280;56331;51.992;20.910;2023-05-20T10:57:14;101153.86;;;22.38;51.56
69221;BME280;56331;51.992;20.910;2023-05-20T10:59:41;101147.57;;;22.35;51.53
69221;BME280;56331;51.992;20.910;2023-05-20T11:02:09;101147.88;;;22.33;51.55
69221;BME280;56331;51.992;20.910;2023-05-20T11:04:42;101146.00;;;22.31;51.74
69221;BME280;56331;51.992;20.910;2023-05-20T11:07:09;101141.60;;;22.30;51.83
69221;BME280;56331;51.992;20.910;2023-05-20T11:09:36;101133.59;;;22.28;51.65
69221;BME280;56331;51.992;20.910;2023-05-20T11:12:03;101132.62;;;22.33;51.46
69221;BME280;56331;51.992;20.910;2023-05-20T11:14:29;101135.39;;;22.33;51.52
69221;BME280;56331;51.992;20.910;2023-05-20T11:16:57;101133.34;;;22.36;51.50
69221;BME280;56331;51.992;20.910;2023-05-20T11:19:25;101120.55;;;22.38;51.54
69221;BME280;56331;51.992;20.910;2023-05-20T11:21:52;101124.20;;;22.36;51.60
69221;BME280;56331;51.992;20.910;2023-05-20T11:24:25;101113.26;;;22.39;51.51
69221;BME280;56331;51.992;20.910;2023-05-20T11:26:54;101117.92;;;22.41;51.41
69221;BME280;56331;51.992;20.910;2023-05-20T11:29:20;101118.19;;;22.42;51.42
69221;BME280;56331;51.992;20.910;2023-05-20T11:31:48;101116.53;;;22.41;51.58
69221;BME280;56331;51.992;20.910;2023-05-20T11:34:20;101114.25;;;22.43;51.53
69221;BME280;56331;51.992;20.910;2023-05-20T11:36:48;101114.34;;;22.41;51.62
69221;BME280;56331;51.992;20.910;2023-05-20T11:39:16;101112.37;;;22.41;51.64
69221;BME280;56331;51.992;20.910;2023-05-20T11:41:43;101101.34;;;22.39;51.74
69221;BME280;56331;51.992;20.910;2023-05-20T11:44:11;101112.13;;;22.40;51.64
69221;BME280;56331;51.992;20.910;2023-05-20T11:46:42;101112.13;;;22.40;51.75
69221;BME280;56331;51.992;20.910;2023-05-20T11:49:09;101113.84;;;22.39;52.02
69221;BME280;56331;51.992;20.910;2023-05-20T11:51:37;101112.22;;;22.38;52.39
69221;BME280;56331;51.992;20.910;2023-05-20T11:54:05;101107.47;;;22.38;52.71
69221;BME280;56331;51.992;20.910;2023-05-20T11:56:33;101110.48;;;22.39;52.76
69221;BME280;56331;51.992;20.910;2023-05-20T11:59:03;101109.44;;;22.38;52.68
69221;BME280;56331;51.992;20.910;2023-05-20T12:01:31;101107.47;;;22.38;52.77
69221;BME280;56331;51.992;20.910;2023-05-20T12:04:09;101103.08;;;22.37;53.02
69221;BME280;56331;51.992;20.910;2023-05-20T12:06:35;101105.51;;;22.39;53.07
69221;BME280;56331;51.992;20.910;2023-05-20T12:09:07;101102.16;;;22.39;53.08
69221;BME280;56331;51.992;20.910;2023-05-20T12:11:34;101102.16;;;22.39;53.06
69221;BME280;56331;51.992;20.910;2023-05-20T12:14:04;101103.00;;;22.40;53.03
69221;BME280;56331;51.992;20.910;2023-05-20T12:16:32;101103.23;;;22.41;52.67
69221;BME280;56331;51.992;20.910;2023-05-20T12:19:00;101091.23;;;22.43;52.48
69221;BME280;56331;51.992;20.910;2023-05-20T12:21:28;101098.98;;;22.43;52.52
69221;BME280;56331;51.992;20.910;2023-05-20T12:23:54;101092.62;;;22.43;52.54
69221;BME280;56331;51.992;20.910;2023-05-20T12:26:25;101089.03;;;22.42;52.41
69221;BME280;56331;51.992;20.910;2023-05-20T12:28:52;101086.80;;;22.42;52.50
69221;BME280;56331;51.992;20.910;2023-05-20T12:31:19;101087.96;;;22.41;52.43
69221;BME280;56331;51.992;20.910;2023-05-20T12:33:46;101083.48;;;22.42;52.49
69221;BME280;56331;51.992;20.910;2023-05-20T12:36:13;101085.42;;;22.42;52.52
69221;BME280;56331;51.992;20.910;2023-05-20T12:38:40;101088.20;;;22.42;52.51
69221;BME280;56331;51.992;20.910;2023-05-20T12:41:07;101094.90;;;22.41;52.52
69221;BME280;56331;51.992;20.910;2023-05-20T12:43:34;101092.94;;;22.41;52.56
69221;BME280;56331;51.992;20.910;2023-05-20T12:46:02;101083.22;;;22.41;52.49
69221;BME280;56331;51.992;20.910;2023-05-20T12:48:29;101083.48;;;22.42;52.43
69221;BME280;56331;51.992;20.910;2023-05-20T12:50:55;101084.61;;;22.41;52.44